Time;durP1;ratioP1;P1;durP2;ratioP2;P2;SDS_P1;SDS_P2;PMS_P1;PMS_P2;Temp;Humidity;BMP_temperature;BMP_pressure;BME280_temperature;BME280_humidity;BME280_pressure;Samples;Min_cycle;Max_cycle;Signal;HPM_P1;HPM_P2
2022/03/02 00:00:57;;;;;;;31.08;19.77;;;2.60;99.90;;;;;;4971054;28;20125;-70
2022/03/02 00:03:23;;;;;;;32.80;19.58;;;2.60;99.90;;;;;;4971640;28;20023;-70
2022/03/02 00:05:52;;;;;;;27.60;17.35;;;2.60;99.90;;;;;;4971598;28;20434;-71
2022/03/02 00:08:18;;;;;;;31.25;19.17;;;2.60;99.90;;;;;;4954336;28;20126;-71
2022/03/02 00:10:44;;;;;;;29.83;19.23;;;2.60;99.90;;;;;;4972395;28;20055;-70
2022/03/02 00:13:11;;;;;;;27.83;19.17;;;2.60;99.90;;;;;;4969999;28;20460;-70
2022/03/02 00:15:37;;;;;;;27.00;17.60;;;2.60;99.90;;;;;;4973998;28;20027;-69
2022/03/02 00:18:06;;;;;;;27.80;17.50;;;2.60;99.90;;;;;;4974722;28;20042;-72
2022/03/02 00:20:34;;;;;;;28.80;18.05;;;2.50;99.90;;;;;;4974682;28;20465;-69
2022/03/02 00:23:09;;;;;;;26.58;17.50;;;2.60;99.90;;;;;;4975679;28;20034;-70
2022/03/02 00:25:35;;;;;;;31.05;19.23;;;2.60;99.90;;;;;;4955249;29;20028;-70
2022/03/02 00:28:01;;;;;;;31.45;20.23;;;2.60;99.90;;;;;;4956224;28;20039;-71
2022/03/02 00:30:28;;;;;;;30.17;18.27;;;2.60;99.90;;;;;;4955491;28;20036;-71
2022/03/02 00:32:55;;;;;;;27.27;16.42;;;2.50;99.90;;;;;;4956511;28;20031;-71
2022/03/02 00:35:21;;;;;;;25.60;15.77;;;2.50;99.90;;;;;;4956865;28;20074;-71
2022/03/02 00:37:47;;;;;;;30.75;18.45;;;2.50;99.90;;;;;;4966357;28;20026;-71
2022/03/02 00:40:14;;;;;;;31.85;18.27;;;2.50;99.90;;;;;;4976042;28;20030;-71
2022/03/02 00:42:40;;;;;;;31.67;18.00;;;2.60;99.90;;;;;;4974274;28;20027;-71
2022/03/02 00:45:06;;;;;;;27.73;17.98;;;2.60;99.90;;;;;;4974359;28;20085;-70
2022/03/02 00:47:32;;;;;;;25.05;15.55;;;2.50;99.90;;;;;;4975394;28;20099;-72
2022/03/02 00:50:08;;;;;;;28.63;16.58;;;2.60;99.90;;;;;;4975920;28;20435;-71
2022/03/02 00:52:37;;;;;;;27.40;17.05;;;2.60;99.90;;;;;;4957496;28;20030;-71
2022/03/02 00:55:04;;;;;;;26.10;16.63;;;2.60;99.90;;;;;;4958631;28;20472;-71
2022/03/02 00:57:30;;;;;;;28.90;17.70;;;2.60;99.90;;;;;;4974072;28;20070;-69
2022/03/02 00:59:56;;;;;;;29.63;16.25;;;2.60;99.90;;;;;;4975454;28;20500;-70
2022/03/02 01:02:26;;;;;;;26.70;16.27;;;2.60;99.90;;;;;;4974698;28;20031;-69
2022/03/02 01:04:52;;;;;;;27.33;16.55;;;2.60;99.90;;;;;;4974051;28;20444;-69
2022/03/02 01:07:18;;;;;;;25.17;15.13;;;2.50;99.90;;;;;;4975421;28;20022;-69
2022/03/02 01:09:44;;;;;;;25.88;16.40;;;2.50;99.90;;;;;;4973833;28;20174;-69
2022/03/02 01:12:10;;;;;;;27.73;15.88;;;2.50;99.90;;;;;;4974707;28;20526;-70
2022/03/02 01:14:36;;;;;;;26.98;16.73;;;2.60;99.90;;;;;;4973794;28;20027;-71
2022/03/02 01:17:03;;;;;;;24.52;16.13;;;2.50;99.90;;;;;;4975230;28;20372;-69
2022/03/02 01:19:29;;;;;;;28.02;15.85;;;2.50;99.90;;;;;;4975476;28;20030;-71
2022/03/02 01:21:55;;;;;;;24.88;15.70;;;2.50;99.90;;;;;;4974722;28;20030;-71
2022/03/02 01:24:20;;;;;;;25.90;16.73;;;2.50;99.90;;;;;;4974885;28;20043;-69
2022/03/02 01:26:55;;;;;;;30.58;17.23;;;2.50;99.90;;;;;;4974680;28;20022;-71
2022/03/02 01:29:37;;;;;;;35.50;18.85;;;2.60;99.90;;;;;;4973470;28;20054;-68
2022/03/02 01:32:08;;;;;;;27.15;18.15;;;2.50;99.90;;;;;;4973272;28;20035;-70
2022/03/02 01:34:37;;;;;;;24.48;14.90;;;2.50;99.90;;;;;;4974738;28;20484;-70
2022/03/02 01:37:06;;;;;;;26.00;16.38;;;2.50;99.90;;;;;;4973104;28;20030;-71
2022/03/02 01:39:32;;;;;;;26.00;15.90;;;2.50;99.90;;;;;;4973423;28;20034;-71
2022/03/02 01:41:58;;;;;;;23.85;16.35;;;2.50;99.90;;;;;;4974273;28;20037;-70
2022/03/02 01:44:25;;;;;;;26.00;17.17;;;2.50;99.90;;;;;;4974394;28;20177;-70
2022/03/02 01:46:59;;;;;;;29.08;16.38;;;2.50;99.90;;;;;;4958150;28;20543;-71
2022/03/02 01:49:25;;;;;;;27.33;16.92;;;2.40;99.90;;;;;;4972627;28;20039;-69
2022/03/02 01:51:52;;;;;;;26.30;15.27;;;2.50;99.90;;;;;;4971439;28;20031;-70
2022/03/02 01:54:23;;;;;;;26.83;15.55;;;2.50;99.90;;;;;;4973397;28;20031;-69
2022/03/02 01:56:51;;;;;;;24.55;16.27;;;2.50;99.90;;;;;;4974407;28;20122;-70
2022/03/02 01:59:17;;;;;;;26.95;16.98;;;2.40;99.90;;;;;;4973985;28;20038;-70
2022/03/02 02:01:47;;;;;;;28.60;16.63;;;2.40;99.90;;;;;;4974016;28;20469;-71
2022/03/02 02:04:13;;;;;;;37.35;18.90;;;2.50;99.90;;;;;;4957077;28;20046;-70
2022/03/02 02:06:39;;;;;;;30.23;16.77;;;2.40;99.90;;;;;;4974104;28;20473;-70
2022/03/02 02:09:09;;;;;;;26.67;16.77;;;2.50;99.90;;;;;;4956928;28;20042;-70
2022/03/02 02:11:35;;;;;;;26.15;16.25;;;2.40;99.90;;;;;;4988622;28;20027;-69
2022/03/02 02:14:01;;;;;;;25.40;15.88;;;2.40;99.90;;;;;;4974125;28;20034;-71
2022/03/02 02:16:27;;;;;;;25.33;16.02;;;2.50;99.90;;;;;;4972739;28;20058;-71
2022/03/02 02:18:56;;;;;;;26.98;15.68;;;2.50;99.90;;;;;;4974087;28;20499;-71
2022/03/02 02:21:22;;;;;;;26.25;16.42;;;2.40;99.90;;;;;;4956156;28;20019;-70
2022/03/02 02:23:51;;;;;;;26.15;15.13;;;2.50;99.90;;;;;;4973747;28;20401;-70
2022/03/02 02:26:21;;;;;;;24.92;15.13;;;2.40;99.90;;;;;;4972353;28;20027;-69
2022/03/02 02:29:19;;;;;;;25.02;16.45;;;2.40;99.90;;;;;;4973762;28;20038;-71
2022/03/02 02:31:45;;;;;;;27.50;16.35;;;2.50;99.90;;;;;;4968562;28;20098;-71
2022/03/02 02:34:11;;;;;;;25.98;15.35;;;2.40;99.90;;;;;;4975694;28;20477;-69
2022/03/02 02:36:49;;;;;;;26.98;14.55;;;2.40;99.90;;;;;;4992785;28;20036;-71
2022/03/02 02:39:16;;;;;;;26.63;15.57;;;2.40;99.90;;;;;;5008167;28;20481;-70
2022/03/02 02:41:52;;;;;;;23.40;15.13;;;2.40;99.90;;;;;;4986968;28;20034;-71
2022/03/02 02:44:22;;;;;;;26.90;15.75;;;2.40;99.90;;;;;;4988213;28;20046;-71
2022/03/02 02:46:50;;;;;;;26.67;15.10;;;2.40;99.90;;;;;;4972491;28;20027;-70
2022/03/02 02:49:16;;;;;;;25.60;14.93;;;2.40;99.90;;;;;;4972335;28;20035;-70
2022/03/02 02:51:42;;;;;;;22.23;13.85;;;2.40;99.90;;;;;;4977601;28;20069;-71
2022/03/02 02:54:08;;;;;;;21.35;14.07;;;2.50;99.90;;;;;;4978631;28;20078;-71
2022/03/02 02:56:36;;;;;;;23.35;14.18;;;2.40;99.90;;;;;;4973571;28;20027;-70
2022/03/02 02:59:03;;;;;;;21.95;13.15;;;2.40;99.90;;;;;;4973577;28;20069;-71
2022/03/02 03:01:29;;;;;;;25.73;15.18;;;2.40;99.90;;;;;;4973831;28;20027;-70
2022/03/02 03:03:55;;;;;;;25.52;15.18;;;2.40;99.90;;;;;;4973557;28;20027;-70
2022/03/02 03:06:22;;;;;;;23.02;14.68;;;2.40;99.90;;;;;;4973376;28;20034;-71
2022/03/02 03:08:48;;;;;;;26.10;14.52;;;2.40;99.90;;;;;;4990490;28;20030;-68
2022/03/02 03:11:17;;;;;;;26.27;14.23;;;2.40;99.90;;;;;;4992205;28;20038;-69
2022/03/02 03:13:43;;;;;;;24.95;13.73;;;2.40;99.90;;;;;;4991123;28;20031;-70
2022/03/02 03:16:09;;;;;;;22.42;13.30;;;2.40;99.90;;;;;;4992297;28;20026;-70
2022/03/02 03:18:48;;;;;;;24.20;15.45;;;2.40;99.90;;;;;;4991397;28;20161;-70
2022/03/02 03:21:24;;;;;;;25.92;15.00;;;2.40;99.90;;;;;;4969382;28;20485;-70
2022/03/02 03:23:50;;;;;;;23.45;14.60;;;2.40;99.90;;;;;;4961815;28;20026;-70
2022/03/02 03:26:58;;;;;;;24.17;15.68;;;2.30;99.90;;;;;;4992720;28;20491;-71
2022/03/02 03:29:41;;;;;;;23.35;15.45;;;2.30;99.90;;;;;;4987807;28;20066;-70
2022/03/02 03:32:20;;;;;;;24.95;14.55;;;2.40;99.90;;;;;;4961948;28;20054;-69
2022/03/02 03:34:59;;;;;;;23.40;14.38;;;2.30;99.90;;;;;;4989959;28;20528;-71
2022/03/02 03:37:29;;;;;;;25.13;15.00;;;2.40;99.90;;;;;;4973842;28;20472;-71
2022/03/02 03:40:00;;;;;;;25.92;14.85;;;2.40;99.90;;;;;;4996386;28;20528;-71
2022/03/02 03:42:29;;;;;;;26.65;14.95;;;2.40;99.90;;;;;;4992991;28;20092;-69
2022/03/02 03:45:00;;;;;;;22.60;14.93;;;2.30;99.90;;;;;;5009158;28;20109;-72
2022/03/02 03:47:39;;;;;;;24.63;15.35;;;2.40;99.90;;;;;;4976759;28;20034;-69
2022/03/02 03:50:12;;;;;;;22.80;14.35;;;2.40;99.90;;;;;;4972365;28;20590;-69
2022/03/02 03:52:39;;;;;;;20.42;13.27;;;2.40;99.90;;;;;;4993912;28;20026;-70
2022/03/02 03:55:12;;;;;;;21.45;13.63;;;2.30;99.90;;;;;;4993004;28;20511;-69
2022/03/02 03:57:44;;;;;;;22.35;12.82;;;2.20;99.90;;;;;;4993431;28;20026;-69
2022/03/02 04:00:16;;;;;;;23.20;13.68;;;2.30;99.90;;;;;;5001203;28;20531;-70
2022/03/02 04:02:49;;;;;;;27.95;15.48;;;2.20;99.90;;;;;;4980696;28;20638;-66
2022/03/02 04:05:18;;;;;;;24.40;15.77;;;2.20;99.90;;;;;;4977440;28;20125;-69
2022/03/02 04:07:46;;;;;;;28.45;16.35;;;2.30;99.90;;;;;;4995251;28;20019;-68
2022/03/02 04:10:19;;;;;;;35.58;20.15;;;2.20;99.90;;;;;;4986447;28;20070;-71
2022/03/02 04:12:53;;;;;;;39.35;22.63;;;2.20;99.90;;;;;;4974833;28;20481;-71
2022/03/02 04:15:22;;;;;;;45.03;25.20;;;2.20;99.90;;;;;;4974788;28;20441;-70
2022/03/02 04:17:54;;;;;;;52.65;27.55;;;2.20;99.90;;;;;;4971880;28;20031;-71
2022/03/02 04:20:21;;;;;;;51.03;25.30;;;2.20;99.90;;;;;;4973518;28;20128;-71
2022/03/02 04:22:53;;;;;;;29.45;17.05;;;2.20;99.90;;;;;;4995888;28;20094;-70
2022/03/02 04:25:22;;;;;;;31.33;15.93;;;2.20;99.90;;;;;;4978575;28;20041;-71
2022/03/02 04:27:56;;;;;;;30.25;15.57;;;2.20;99.90;;;;;;4993634;28;20027;-71
2022/03/02 04:30:22;;;;;;;30.23;16.40;;;2.20;99.90;;;;;;4993117;28;20027;-70
2022/03/02 04:32:48;;;;;;;22.98;14.68;;;2.20;99.90;;;;;;4995569;28;20026;-70
2022/03/02 04:35:15;;;;;;;25.23;15.77;;;2.20;99.90;;;;;;4995317;28;20022;-71
2022/03/02 04:37:42;;;;;;;24.55;14.38;;;2.20;99.90;;;;;;4993877;28;20126;-70
2022/03/02 04:40:11;;;;;;;28.50;16.30;;;2.20;99.90;;;;;;4986768;28;20030;-70
2022/03/02 04:42:40;;;;;;;28.88;16.17;;;2.20;99.90;;;;;;4974222;28;20424;-70
2022/03/02 04:45:06;;;;;;;25.65;14.80;;;2.20;99.90;;;;;;4971081;28;20082;-70
2022/03/02 04:47:32;;;;;;;24.73;14.82;;;2.10;99.90;;;;;;4954678;28;20035;-70
2022/03/02 04:49:58;;;;;;;23.42;14.10;;;2.10;99.90;;;;;;4970983;28;20431;-70
2022/03/02 04:52:24;;;;;;;24.48;14.05;;;2.10;99.90;;;;;;4994955;28;20026;-69
2022/03/02 04:55:05;;;;;;;24.02;14.48;;;2.10;99.90;;;;;;4995139;28;20080;-68
2022/03/02 04:57:32;;;;;;;22.67;14.38;;;2.10;99.90;;;;;;4994883;28;20069;-70
2022/03/02 05:00:01;;;;;;;22.20;13.80;;;2.00;99.90;;;;;;4985421;28;20545;-70
2022/03/02 05:02:28;;;;;;;25.45;16.35;;;2.00;99.90;;;;;;4973442;28;20657;-70
2022/03/02 05:04:54;;;;;;;26.13;16.70;;;2.00;99.90;;;;;;4973263;28;20436;-70
2022/03/02 05:07:20;;;;;;;23.70;14.35;;;2.10;99.90;;;;;;4973584;28;20030;-68
2022/03/02 05:09:49;;;;;;;24.33;14.10;;;2.00;99.90;;;;;;4974127;28;20039;-70
2022/03/02 05:12:14;;;;;;;24.30;14.07;;;2.00;99.90;;;;;;4963348;28;20069;-70
2022/03/02 05:14:56;;;;;;;24.35;14.68;;;2.00;99.90;;;;;;4974332;28;20054;-70
2022/03/02 05:17:23;;;;;;;26.17;15.20;;;2.00;99.90;;;;;;4973113;28;20799;-71
2022/03/02 05:19:50;;;;;;;21.73;13.38;;;2.00;99.90;;;;;;4973655;28;20026;-70
2022/03/02 05:22:16;;;;;;;28.15;15.27;;;2.00;99.90;;;;;;4957540;28;20039;-69
2022/03/02 05:24:45;;;;;;;27.90;15.30;;;2.00;99.90;;;;;;4972503;28;20031;-69
2022/03/02 05:27:11;;;;;;;22.08;12.48;;;2.00;99.90;;;;;;4972985;28;20027;-70
2022/03/02 05:29:45;;;;;;;25.13;14.10;;;2.00;99.90;;;;;;4974539;28;20031;-70
2022/03/02 05:32:45;;;;;;;25.50;14.20;;;2.00;99.90;;;;;;4973395;28;20090;-69
2022/03/02 05:35:24;;;;;;;23.13;13.10;;;2.00;99.90;;;;;;4974686;28;20042;-66
2022/03/02 05:38:10;;;;;;;21.67;12.90;;;1.90;99.90;;;;;;4955402;28;20039;-69
2022/03/02 05:40:36;;;;;;;20.33;11.98;;;1.90;99.90;;;;;;4989641;28;20461;-70
2022/03/02 05:43:02;;;;;;;23.08;13.68;;;1.90;99.90;;;;;;4974306;28;20038;-69
2022/03/02 05:45:29;;;;;;;22.95;13.48;;;2.00;99.90;;;;;;4972937;28;20050;-69
2022/03/02 05:47:55;;;;;;;26.40;14.55;;;1.90;99.90;;;;;;4973165;28;20122;-68
2022/03/02 05:50:21;;;;;;;22.17;13.98;;;2.00;99.90;;;;;;4974475;28;20125;-69
2022/03/02 05:52:47;;;;;;;21.33;12.80;;;2.00;99.90;;;;;;4972602;28;20027;-69
2022/03/02 05:55:13;;;;;;;24.10;12.45;;;2.00;99.90;;;;;;4977568;28;20119;-70
2022/03/02 05:57:39;;;;;;;21.67;12.95;;;2.00;99.90;;;;;;4989870;28;20069;-69
2022/03/02 06:00:07;;;;;;;24.63;13.57;;;2.00;99.90;;;;;;4973360;28;20030;-68
2022/03/02 06:02:32;;;;;;;22.13;12.90;;;2.00;99.90;;;;;;4974232;28;20110;-70
2022/03/02 06:04:58;;;;;;;20.38;12.18;;;2.00;99.90;;;;;;4973826;28;20117;-69
2022/03/02 06:07:24;;;;;;;20.95;13.18;;;1.90;99.90;;;;;;4973662;28;20096;-69
2022/03/02 06:09:50;;;;;;;22.92;13.43;;;2.00;99.90;;;;;;4973764;28;20446;-67
2022/03/02 06:12:17;;;;;;;24.77;13.45;;;2.00;99.90;;;;;;4971842;28;20019;-68
2022/03/02 06:14:43;;;;;;;23.08;13.95;;;2.00;99.90;;;;;;4973539;28;20034;-67
2022/03/02 06:17:10;;;;;;;22.63;13.77;;;2.00;99.90;;;;;;4973799;28;20102;-69
2022/03/02 06:19:36;;;;;;;26.70;15.07;;;2.10;99.90;;;;;;4974191;28;20027;-68
2022/03/02 06:22:04;;;;;;;22.17;14.60;;;2.10;99.90;;;;;;4973518;28;20030;-69
2022/03/02 06:24:31;;;;;;;23.75;15.07;;;2.10;99.90;;;;;;4972999;28;20031;-69
2022/03/02 06:26:58;;;;;;;30.63;16.17;;;2.10;99.90;;;;;;4974236;28;20077;-68
2022/03/02 06:29:24;;;;;;;24.20;14.88;;;2.20;99.90;;;;;;4973784;28;20058;-69
2022/03/02 06:31:50;;;;;;;27.40;16.50;;;2.20;99.90;;;;;;4974974;28;20023;-69
2022/03/02 06:34:16;;;;;;;23.85;16.90;;;2.30;99.90;;;;;;4973975;28;20031;-69
2022/03/02 06:36:42;;;;;;;25.45;15.43;;;2.30;99.90;;;;;;4972300;28;20023;-68
2022/03/02 06:39:08;;;;;;;25.00;15.32;;;2.40;99.90;;;;;;4956361;28;20089;-69
2022/03/02 06:41:56;;;;;;;26.35;15.75;;;2.50;99.90;;;;;;4972412;28;20464;-68
2022/03/02 06:44:36;;;;;;;30.10;18.25;;;2.50;99.90;;;;;;4973440;28;20153;-68
2022/03/02 06:47:05;;;;;;;30.75;16.08;;;2.60;99.90;;;;;;4972642;28;20500;-69
2022/03/02 06:49:58;;;;;;;26.85;15.43;;;2.60;99.90;;;;;;4973489;28;20043;-69
2022/03/02 06:52:32;;;;;;;25.92;15.00;;;2.60;99.90;;;;;;4973650;28;20145;-69
2022/03/02 06:54:59;;;;;;;;;;;2.50;99.90;;;;;;4973678;28;20033;-69
2022/03/02 06:57:28;;;;;;;24.83;15.65;;;2.50;99.90;;;;;;4972553;28;19992;-68
2022/03/02 07:00:03;;;;;;;32.67;16.70;;;2.50;99.90;;;;;;4973227;28;20027;-69
2022/03/02 07:02:44;;;;;;;23.90;13.45;;;2.60;99.90;;;;;;4973802;28;20366;-68
2022/03/02 07:05:10;;;;;;;26.77;15.40;;;2.60;99.90;;;;;;4973190;28;20481;-67
2022/03/02 07:07:37;;;;;;;27.38;15.35;;;2.60;99.90;;;;;;4973491;28;20066;-69
2022/03/02 07:10:06;;;;;;;23.65;13.48;;;2.60;99.90;;;;;;4973118;28;20039;-69
2022/03/02 07:12:32;;;;;;;22.50;13.15;;;2.60;99.90;;;;;;4973665;28;20529;-69
2022/03/02 07:14:59;;;;;;;21.58;13.48;;;2.70;99.90;;;;;;4972920;28;20061;-69
2022/03/02 07:17:32;;;;;;;27.30;14.77;;;2.70;99.90;;;;;;4973024;28;20058;-69
2022/03/02 07:20:06;;;;;;;26.13;13.40;;;2.70;99.90;;;;;;4972969;28;20037;-69
2022/03/02 07:22:36;;;;;;;26.10;12.57;;;2.60;99.90;;;;;;4973953;28;20436;-69
2022/03/02 07:25:05;;;;;;;22.38;13.25;;;2.50;99.90;;;;;;4977682;28;20110;-69
2022/03/02 07:27:36;;;;;;;21.52;12.65;;;2.50;99.90;;;;;;4975927;28;20035;-69
2022/03/02 07:30:03;;;;;;;23.90;11.02;;;2.60;99.90;;;;;;4976119;28;20046;-69
2022/03/02 07:32:32;;;;;;;21.27;12.32;;;2.60;99.90;;;;;;4976164;28;20035;-69
2022/03/02 07:35:01;;;;;;;26.40;13.82;;;2.60;99.90;;;;;;4977244;28;20097;-69
2022/03/02 07:37:28;;;;;;;24.92;14.52;;;2.60;99.90;;;;;;4977182;28;20058;-69
2022/03/02 07:39:55;;;;;;;23.77;12.73;;;2.70;99.90;;;;;;4976873;28;20361;-69
2022/03/02 07:42:21;;;;;;;25.60;13.85;;;2.70;99.90;;;;;;4976869;28;20376;-70
2022/03/02 07:44:49;;;;;;;25.65;13.25;;;2.70;99.90;;;;;;4971770;28;20047;-69
2022/03/02 07:47:16;;;;;;;23.60;14.23;;;2.70;99.90;;;;;;4957604;28;20035;-69
2022/03/02 07:49:42;;;;;;;22.58;12.52;;;2.70;99.90;;;;;;4957362;28;20481;-68
2022/03/02 07:52:10;;;;;;;24.73;11.35;;;2.80;99.90;;;;;;4973727;28;20099;-69
2022/03/02 07:54:39;;;;;;;22.35;12.13;;;2.80;99.90;;;;;;4991188;28;20042;-69
2022/03/02 07:57:11;;;;;;;19.50;11.50;;;2.80;99.90;;;;;;4976957;28;20021;-69
2022/03/02 07:59:43;;;;;;;23.40;12.60;;;2.90;99.90;;;;;;4976276;28;20034;-69
2022/03/02 08:02:10;;;;;;;22.02;11.23;;;2.80;99.90;;;;;;4957853;28;20058;-68
2022/03/02 08:04:38;;;;;;;20.73;12.18;;;2.90;99.90;;;;;;4955290;28;20038;-69
2022/03/02 08:07:05;;;;;;;29.00;13.63;;;3.10;99.90;;;;;;4969737;28;20035;-67
2022/03/02 08:09:32;;;;;;;24.80;12.13;;;3.10;99.90;;;;;;4975303;28;20038;-69
2022/03/02 08:11:59;;;;;;;21.70;11.68;;;3.30;99.90;;;;;;4975730;28;20031;-69
2022/03/02 08:14:25;;;;;;;20.67;10.38;;;3.40;99.90;;;;;;4976079;28;20035;-69
2022/03/02 08:16:52;;;;;;;20.27;11.52;;;3.20;99.90;;;;;;4975966;28;20035;-69
2022/03/02 08:19:20;;;;;;;18.80;10.25;;;3.40;99.90;;;;;;4974798;28;20026;-70
2022/03/02 08:22:04;;;;;;;19.50;11.15;;;3.30;98.10;;;;;;4973876;28;20509;-69
2022/03/02 08:24:31;;;;;;;25.33;11.65;;;3.50;99.90;;;;;;4975524;28;20440;-69
2022/03/02 08:27:03;;;;;;;18.92;10.68;;;3.60;99.60;;;;;;4975977;28;20050;-69
2022/03/02 08:29:31;;;;;;;24.50;13.68;;;3.50;95.70;;;;;;4975316;28;20189;-68
2022/03/02 08:32:02;;;;;;;21.17;11.25;;;3.60;99.00;;;;;;4974891;28;20025;-69
2022/03/02 08:34:30;;;;;;;20.10;10.45;;;3.80;98.30;;;;;;4973108;28;20097;-68
2022/03/02 08:36:56;;;;;;;22.42;12.52;;;3.80;98.10;;;;;;4974351;28;20019;-69
2022/03/02 08:39:24;;;;;;;27.85;11.50;;;3.80;97.30;;;;;;4975898;28;20031;-69
2022/03/02 08:41:54;;;;;;;23.85;13.35;;;3.80;97.70;;;;;;4975330;28;20477;-69
2022/03/02 08:44:20;;;;;;;20.55;12.07;;;4.10;99.50;;;;;;4974667;28;20081;-69
2022/03/02 08:46:48;;;;;;;20.80;11.25;;;4.20;97.20;;;;;;4975654;28;20031;-67
2022/03/02 08:49:17;;;;;;;24.05;11.55;;;4.30;97.20;;;;;;4973958;28;20035;-69
2022/03/02 08:51:43;;;;;;;20.02;10.05;;;4.20;93.40;;;;;;4975252;28;20105;-70
2022/03/02 08:54:14;;;;;;;21.08;9.88;;;4.40;93.50;;;;;;4975106;28;20432;-69
2022/03/02 08:56:41;;;;;;;21.33;9.75;;;4.50;93.70;;;;;;4974633;28;20034;-70
2022/03/02 08:59:12;;;;;;;19.58;10.15;;;4.50;92.50;;;;;;4957979;28;20053;-70
2022/03/02 09:01:41;;;;;;;16.30;8.65;;;4.50;91.70;;;;;;4975635;28;20034;-69
2022/03/02 09:04:10;;;;;;;25.20;10.88;;;4.40;89.90;;;;;;4974183;28;20046;-68
2022/03/02 09:06:36;;;;;;;16.13;8.98;;;4.50;91.40;;;;;;4972648;28;20047;-69
2022/03/02 09:09:05;;;;;;;17.33;9.45;;;4.60;91.30;;;;;;4972846;28;20042;-70
2022/03/02 09:11:31;;;;;;;16.35;8.48;;;4.60;90.30;;;;;;4970586;28;20067;-69
2022/03/02 09:14:03;;;;;;;17.02;8.73;;;4.70;90.50;;;;;;4972138;28;20092;-69
2022/03/02 09:16:30;;;;;;;18.30;9.25;;;4.90;91.30;;;;;;4974111;28;20042;-69
2022/03/02 09:18:56;;;;;;;17.52;8.88;;;4.90;89.80;;;;;;4974582;28;20099;-68
2022/03/02 09:21:25;;;;;;;14.93;7.63;;;4.80;87.40;;;;;;4955277;28;20039;-69
2022/03/02 09:23:55;;;;;;;16.52;8.23;;;4.70;86.60;;;;;;4971060;28;20121;-69
2022/03/02 09:26:21;;;;;;;16.48;9.40;;;4.70;88.10;;;;;;4972992;28;20109;-70
2022/03/02 09:28:53;;;;;;;17.55;9.80;;;4.70;90.00;;;;;;4974180;28;20142;-69
2022/03/02 09:31:22;;;;;;;17.55;8.32;;;4.90;86.30;;;;;;4976459;28;20027;-70
2022/03/02 09:33:54;;;;;;;17.85;9.23;;;5.20;85.50;;;;;;4972186;28;20023;-70
2022/03/02 09:36:22;;;;;;;17.17;9.52;;;5.60;88.60;;;;;;4956669;28;20035;-70
2022/03/02 09:38:50;;;;;;;19.25;10.10;;;5.30;83.90;;;;;;4956829;28;20406;-68
2022/03/02 09:41:21;;;;;;;13.90;8.38;;;5.40;86.00;;;;;;4973966;28;20053;-69
2022/03/02 09:43:56;;;;;;;13.68;7.47;;;5.60;87.00;;;;;;4973994;28;20055;-69
2022/03/02 09:46:36;;;;;;;13.63;7.45;;;5.60;81.70;;;;;;4972409;28;20480;-68
2022/03/02 09:49:08;;;;;;;16.65;7.72;;;5.40;81.20;;;;;;4974257;28;20039;-70
2022/03/02 09:51:41;;;;;;;14.98;6.47;;;5.50;84.40;;;;;;4969490;28;20050;-70
2022/03/02 09:54:08;;;;;;;16.90;7.78;;;5.50;82.40;;;;;;4970392;28;20019;-70
2022/03/02 09:56:35;;;;;;;17.35;8.52;;;6.10;85.60;;;;;;4974118;28;20035;-69
2022/03/02 09:59:04;;;;;;;14.48;8.35;;;6.30;84.60;;;;;;4974304;28;20033;-70
2022/03/02 10:01:33;;;;;;;15.43;8.18;;;6.30;82.50;;;;;;4973829;28;20122;-69
2022/03/02 10:04:13;;;;;;;11.23;6.43;;;6.60;82.50;;;;;;4973551;28;20094;-70
2022/03/02 10:06:43;;;;;;;15.23;6.57;;;6.50;81.40;;;;;;4973243;28;20039;-70
2022/03/02 10:09:12;;;;;;;18.38;7.78;;;6.30;81.80;;;;;;4972590;28;20481;-68
2022/03/02 10:11:43;;;;;;;13.95;6.95;;;6.10;80.30;;;;;;4972831;28;20023;-69
2022/03/02 10:14:10;;;;;;;14.15;7.88;;;6.20;81.40;;;;;;4973795;28;20089;-69
2022/03/02 10:16:43;;;;;;;18.02;9.45;;;6.40;83.70;;;;;;4973051;28;20544;-69
2022/03/02 10:19:20;;;;;;;15.55;6.80;;;6.50;83.50;;;;;;4951201;28;20038;-69
2022/03/02 10:21:54;;;;;;;12.98;6.43;;;6.40;80.60;;;;;;4969534;28;20030;-69
2022/03/02 10:24:23;;;;;;;11.50;5.30;;;6.10;79.30;;;;;;4972220;28;20047;-68
2022/03/02 10:27:01;;;;;;;12.52;6.00;;;6.20;81.20;;;;;;4973778;28;20050;-70
2022/03/02 10:29:35;;;;;;;10.20;5.53;;;6.20;79.50;;;;;;4973368;28;20042;-70
2022/03/02 10:32:09;;;;;;;12.32;6.30;;;6.20;78.90;;;;;;4973017;28;20046;-70
2022/03/02 10:34:36;;;;;;;10.48;5.95;;;6.20;78.50;;;;;;4955015;28;20034;-70
2022/03/02 10:37:20;;;;;;;10.52;5.45;;;6.10;78.60;;;;;;4971501;28;20058;-69
2022/03/02 10:39:56;;;;;;;13.13;6.05;;;6.30;79.80;;;;;;4980329;28;20031;-69
2022/03/02 10:42:33;;;;;;;13.32;6.15;;;6.10;78.80;;;;;;4968574;28;20033;-69
2022/03/02 10:45:02;;;;;;;10.55;5.57;;;6.10;77.00;;;;;;4967134;28;20481;-70
2022/03/02 10:47:29;;;;;;;13.05;6.47;;;6.10;79.80;;;;;;4954408;28;20525;-70
2022/03/02 10:50:00;;;;;;;13.95;7.00;;;6.30;81.30;;;;;;4954333;28;20098;-70
2022/03/02 10:52:28;;;;;;;14.57;6.20;;;6.40;80.80;;;;;;4984197;28;20028;-70
2022/03/02 10:54:57;;;;;;;10.93;6.18;;;6.40;78.50;;;;;;4971848;28;20050;-69
2022/03/02 10:57:26;;;;;;;12.75;6.75;;;6.40;79.00;;;;;;4970806;28;20077;-70
2022/03/02 10:59:55;;;;;;;15.43;6.85;;;6.40;79.80;;;;;;4972063;28;20080;-69
2022/03/02 11:02:23;;;;;;;10.75;6.07;;;6.60;78.90;;;;;;4971908;28;20035;-68
2022/03/02 11:04:54;;;;;;;11.43;6.35;;;6.80;76.40;;;;;;4970538;28;20363;-69
2022/03/02 11:07:20;;;;;;;17.35;6.72;;;6.80;79.50;;;;;;4972519;28;20054;-69
2022/03/02 11:09:51;;;;;;;13.07;7.03;;;7.00;80.20;;;;;;4973368;28;20038;-70
2022/03/02 11:12:21;;;;;;;21.20;8.65;;;7.10;77.90;;;;;;4987861;28;20038;-69
2022/03/02 11:15:02;;;;;;;21.10;9.27;;;7.00;77.30;;;;;;4973310;28;20062;-70
2022/03/02 11:17:29;;;;;;;13.63;5.68;;;6.90;76.80;;;;;;4973256;28;20533;-70
2022/03/02 11:19:57;;;;;;;16.70;8.68;;;6.80;74.20;;;;;;4955796;28;20019;-70
2022/03/02 11:22:26;;;;;;;12.60;6.05;;;7.00;79.70;;;;;;4971915;28;20147;-68
2022/03/02 11:24:55;;;;;;;14.93;6.95;;;7.10;76.30;;;;;;4971825;28;20038;-69
2022/03/02 11:27:28;;;;;;;14.93;6.85;;;7.00;74.30;;;;;;4973059;28;20039;-69
2022/03/02 11:30:10;;;;;;;12.95;6.18;;;7.20;78.60;;;;;;4972359;28;20045;-69
2022/03/02 11:32:40;;;;;;;14.70;6.35;;;7.40;80.30;;;;;;4953879;28;20032;-70
2022/03/02 11:35:13;;;;;;;13.85;7.05;;;7.40;77.30;;;;;;4951892;28;20098;-70
2022/03/02 11:37:41;;;;;;;14.68;6.88;;;7.40;77.10;;;;;;4967975;28;20031;-70
2022/03/02 11:40:10;;;;;;;12.10;6.50;;;7.50;77.30;;;;;;4967659;28;20074;-68
2022/03/02 11:42:38;;;;;;;10.95;5.30;;;7.40;75.40;;;;;;4971191;28;20368;-69
2022/03/02 11:45:06;;;;;;;12.45;6.53;;;7.30;75.90;;;;;;4970398;28;20030;-69
2022/03/02 11:47:55;;;;;;;13.38;6.53;;;7.50;77.40;;;;;;4971267;28;20038;-69
2022/03/02 11:50:21;;;;;;;11.68;5.55;;;7.50;75.70;;;;;;4968427;28;20043;-69
2022/03/02 11:52:47;;;;;;;13.82;6.30;;;7.60;73.90;;;;;;4969658;28;20126;-68
2022/03/02 11:55:18;;;;;;;15.13;6.90;;;7.40;74.30;;;;;;4971050;28;20117;-68
2022/03/02 11:57:50;;;;;;;12.45;6.30;;;7.40;73.00;;;;;;4970272;28;20026;-70
2022/03/02 12:00:22;;;;;;;13.40;6.85;;;7.40;73.90;;;;;;4955254;28;20481;-70
2022/03/02 12:02:57;;;;;;;13.23;5.95;;;7.50;73.30;;;;;;4953470;29;20090;-69
2022/03/02 12:05:31;;;;;;;14.13;6.60;;;7.60;74.90;;;;;;4954630;28;20023;-70
2022/03/02 12:08:12;;;;;;;12.90;6.70;;;7.60;74.50;;;;;;4953498;28;20058;-69
2022/03/02 12:10:53;;;;;;;13.65;6.90;;;7.70;72.90;;;;;;4955822;28;20043;-70
2022/03/02 12:13:20;;;;;;;13.82;6.90;;;7.80;74.60;;;;;;4972517;28;20035;-71
2022/03/02 12:15:52;;;;;;;14.48;6.70;;;7.60;73.40;;;;;;4955982;28;20544;-70
2022/03/02 12:18:20;;;;;;;13.73;6.35;;;7.70;74.10;;;;;;4940061;28;20029;-70
2022/03/02 12:20:48;;;;;;;15.57;7.18;;;7.80;73.60;;;;;;4955946;28;20060;-71
2022/03/02 12:23:24;;;;;;;14.70;5.30;;;7.80;71.70;;;;;;4956401;29;20038;-70
2022/03/02 12:25:51;;;;;;;11.55;6.60;;;7.90;73.90;;;;;;4956846;28;20035;-69
2022/03/02 12:28:19;;;;;;;18.13;8.40;;;7.80;74.50;;;;;;4956871;28;20078;-71
2022/03/02 12:30:45;;;;;;;11.10;6.30;;;8.00;74.10;;;;;;4956867;28;20073;-70
2022/03/02 12:33:11;;;;;;;11.55;6.85;;;8.00;73.40;;;;;;4956582;28;20481;-69
2022/03/02 12:35:39;;;;;;;16.27;7.15;;;8.00;73.50;;;;;;4957053;28;20078;-70
2022/03/02 12:38:10;;;;;;;10.68;5.80;;;7.90;72.50;;;;;;4955261;28;20365;-69
2022/03/02 12:40:41;;;;;;;11.32;5.72;;;7.80;72.80;;;;;;4956732;29;20493;-70
2022/03/02 12:43:09;;;;;;;11.73;6.00;;;7.80;73.30;;;;;;4956319;28;20114;-70
2022/03/02 12:45:41;;;;;;;13.27;5.88;;;7.60;71.70;;;;;;4954200;28;20070;-70
2022/03/02 12:48:08;;;;;;;11.07;5.65;;;7.60;74.10;;;;;;4956277;28;20039;-70
2022/03/02 12:50:34;;;;;;;10.68;5.40;;;7.60;72.80;;;;;;4955599;28;20035;-70
2022/03/02 12:53:02;;;;;;;11.27;5.60;;;7.60;71.70;;;;;;4956263;28;20034;-70